Time;durP1;ratioP1;P1;durP2;ratioP2;P2;SDS_P1;SDS_P2;PMS_P1;PMS_P2;Temp;Humidity;BMP_temperature;BMP_pressure;BME280_temperature;BME280_humidity;BME280_pressure;Samples;Min_cycle;Max_cycle;Signal;HPM_P1;HPM_P2
2023/10/23 00:00:22;;;;;;;1.75;1.15;;;12.10;99.90;;;;;;7396597;19;20144;-84
2023/10/23 00:02:48;;;;;;;1.30;1.20;;;12.50;99.90;;;;;;7396583;19;20130;-84
2023/10/23 00:05:14;;;;;;;2.03;1.50;;;12.60;99.90;;;;;;7395265;19;20580;-85
2023/10/23 00:07:40;;;;;;;2.70;1.50;;;12.20;99.90;;;;;;7394492;19;20146;-85
2023/10/23 00:10:06;;;;;;;1.27;1.10;;;12.20;99.90;;;;;;7394999;19;20170;-83
2023/10/23 00:12:32;;;;;;;1.27;1.07;;;12.40;99.90;;;;;;7397293;19;20803;-85
2023/10/23 00:14:58;;;;;;;1.50;0.98;;;12.50;99.90;;;;;;7395138;19;20149;-84
2023/10/23 00:17:24;;;;;;;1.10;1.00;;;12.10;99.90;;;;;;7395214;19;20158;-85
2023/10/23 00:19:49;;;;;;;1.67;1.20;;;12.10;99.90;;;;;;7395843;19;20130;-85
2023/10/23 00:22:15;;;;;;;1.08;0.73;;;12.30;99.90;;;;;;7394491;19;20131;-84
2023/10/23 00:24:41;;;;;;;0.82;0.73;;;12.50;99.90;;;;;;7399293;19;20153;-84
2023/10/23 00:27:06;;;;;;;1.07;0.90;;;12.60;99.90;;;;;;7402616;19;20155;-86
2023/10/23 00:29:32;;;;;;;0.70;0.70;;;12.70;99.90;;;;;;7401404;19;20608;-86
2023/10/23 00:31:58;;;;;;;1.13;0.80;;;11.90;99.90;;;;;;7403872;19;20137;-86
2023/10/23 00:34:24;;;;;;;0.80;0.60;;;12.00;99.90;;;;;;7401297;19;20494;-85
2023/10/23 00:36:49;;;;;;;0.60;0.60;;;12.20;99.90;;;;;;7400570;19;21416;-85
2023/10/23 00:39:15;;;;;;;0.80;0.60;;;12.50;99.90;;;;;;7403220;19;20131;-85
2023/10/23 00:41:42;;;;;;;0.70;0.50;;;12.50;99.90;;;;;;7400764;19;20154;-85
2023/10/23 00:44:08;;;;;;;1.08;0.55;;;12.50;99.90;;;;;;7401692;19;20163;-85
2023/10/23 00:46:34;;;;;;;0.90;0.67;;;12.20;99.90;;;;;;7401471;19;20142;-85
2023/10/23 00:49:00;;;;;;;0.60;0.60;;;11.70;99.90;;;;;;7400936;19;20144;-85
2023/10/23 00:51:27;;;;;;;2.35;0.70;;;11.80;99.90;;;;;;7400612;19;20134;-84
2023/10/23 00:53:54;;;;;;;0.95;0.75;;;11.70;99.90;;;;;;7402561;19;20165;-85
2023/10/23 00:56:20;;;;;;;0.60;0.60;;;11.80;99.90;;;;;;7400536;19;20177;-85
2023/10/23 00:58:46;;;;;;;0.80;0.57;;;12.00;99.90;;;;;;7400414;19;20167;-86
2023/10/23 01:01:12;;;;;;;1.83;0.60;;;12.10;99.90;;;;;;7400308;19;20171;-85
2023/10/23 01:03:43;;;;;;;0.40;0.40;;;11.60;99.90;;;;;;7401720;19;20143;-85
2023/10/23 01:06:09;;;;;;;0.40;0.40;;;11.60;99.90;;;;;;7401300;19;20793;-85
2023/10/23 01:08:36;;;;;;;0.63;0.60;;;12.00;99.90;;;;;;7403157;19;20892;-85
2023/10/23 01:11:02;;;;;;;1.10;0.50;;;11.80;99.90;;;;;;7400509;19;20131;-85
2023/10/23 01:13:28;;;;;;;0.80;0.70;;;11.80;99.90;;;;;;7401143;19;20143;-85
2023/10/23 01:15:54;;;;;;;0.87;0.67;;;11.80;99.90;;;;;;7399722;19;20141;-85
2023/10/23 01:18:20;;;;;;;0.63;0.63;;;11.60;99.90;;;;;;7399510;19;20135;-84
2023/10/23 01:20:47;;;;;;;0.82;0.75;;;11.90;99.90;;;;;;7400401;19;20162;-84
2023/10/23 01:23:13;;;;;;;0.53;0.50;;;12.00;99.90;;;;;;7400393;19;20166;-84
2023/10/23 01:25:39;;;;;;;1.38;0.90;;;12.00;99.90;;;;;;7398970;19;20141;-85
2023/10/23 01:28:05;;;;;;;0.60;0.60;;;12.20;99.90;;;;;;7400281;19;20163;-84
2023/10/23 01:30:31;;;;;;;1.27;0.87;;;12.30;99.90;;;;;;7398008;19;20161;-85
2023/10/23 01:32:58;;;;;;;1.48;0.95;;;12.40;99.90;;;;;;7401225;19;20139;-84
2023/10/23 01:35:24;;;;;;;0.90;0.73;;;12.40;99.90;;;;;;7397587;19;20135;-84
2023/10/23 01:37:50;;;;;;;0.40;0.40;;;12.40;99.90;;;;;;7400560;19;20154;-84
2023/10/23 01:40:15;;;;;;;1.00;0.80;;;12.30;99.90;;;;;;7399864;19;20131;-84
2023/10/23 01:42:42;;;;;;;0.85;0.57;;;12.30;99.90;;;;;;7400330;19;20614;-84
2023/10/23 01:45:08;;;;;;;1.97;1.23;;;12.30;99.90;;;;;;7400638;19;20149;-84
2023/10/23 01:47:34;;;;;;;1.30;0.53;;;12.30;99.90;;;;;;7400306;19;20142;-85
2023/10/23 01:50:00;;;;;;;0.83;0.60;;;11.90;99.90;;;;;;7398400;19;20616;-85
2023/10/23 01:52:26;;;;;;;0.80;0.80;;;11.40;99.90;;;;;;7399615;19;20135;-85
2023/10/23 01:54:52;;;;;;;2.28;0.85;;;11.50;99.90;;;;;;7401393;19;20162;-84
2023/10/23 01:57:19;;;;;;;1.08;0.80;;;11.40;99.90;;;;;;7399539;19;20154;-85
2023/10/23 01:59:44;;;;;;;1.55;1.27;;;11.60;99.90;;;;;;7402094;19;20131;-84
2023/10/23 02:02:11;;;;;;;0.43;0.43;;;11.60;99.90;;;;;;7399554;19;20138;-84
2023/10/23 02:04:39;;;;;;;0.85;0.80;;;11.50;99.90;;;;;;7399681;19;21405;-83
2023/10/23 02:07:06;;;;;;;1.10;0.98;;;11.30;99.90;;;;;;7398446;19;20174;-84
2023/10/23 02:09:32;;;;;;;1.37;0.87;;;11.20;99.90;;;;;;7400100;19;20471;-83
2023/10/23 02:11:58;;;;;;;1.07;0.70;;;10.90;99.90;;;;;;7399313;19;20130;-84
2023/10/23 02:14:24;;;;;;;0.73;0.60;;;11.00;99.90;;;;;;7400192;19;20139;-85
2023/10/23 02:16:52;;;;;;;0.60;0.60;;;11.10;99.90;;;;;;7399111;19;20151;-84
2023/10/23 02:19:18;;;;;;;1.20;0.80;;;11.10;99.90;;;;;;7398670;19;20153;-84
2023/10/23 02:21:49;;;;;;;1.30;0.57;;;11.20;99.90;;;;;;7398676;19;20543;-83
2023/10/23 02:24:21;;;;;;;1.03;0.83;;;11.50;99.90;;;;;;7399392;19;20131;-84
2023/10/23 02:26:48;;;;;;;1.00;0.60;;;11.40;99.90;;;;;;7398968;19;20147;-84
2023/10/23 02:29:14;;;;;;;0.88;0.63;;;11.60;99.90;;;;;;7396943;19;20138;-84
2023/10/23 02:31:39;;;;;;;0.70;0.70;;;11.90;99.90;;;;;;7399541;19;20131;-84
2023/10/23 02:34:05;;;;;;;1.00;0.80;;;11.70;99.90;;;;;;7396529;19;20576;-83
2023/10/23 02:36:32;;;;;;;0.53;0.43;;;11.60;99.90;;;;;;7395369;19;20622;-84
2023/10/23 02:38:57;;;;;;;0.90;0.82;;;11.70;99.90;;;;;;7399006;19;20150;-84
2023/10/23 02:41:23;;;;;;;0.67;0.67;;;11.10;99.90;;;;;;7398851;19;20207;-84
2023/10/23 02:43:49;;;;;;;0.55;0.52;;;10.90;99.90;;;;;;7402413;19;20135;-85
2023/10/23 02:46:16;;;;;;;1.60;0.68;;;10.90;99.90;;;;;;7398231;19;20623;-84
2023/10/23 02:48:42;;;;;;;0.50;0.50;;;11.30;99.90;;;;;;7395535;19;20218;-84
2023/10/23 02:51:08;;;;;;;1.13;1.03;;;11.50;99.90;;;;;;7397846;19;20141;-83
2023/10/23 02:53:38;;;;;;;1.00;0.73;;;11.50;99.90;;;;;;7397110;19;20150;-85
2023/10/23 02:56:10;;;;;;;1.07;0.90;;;12.10;99.90;;;;;;7397907;19;20127;-84
2023/10/23 02:58:35;;;;;;;1.02;0.60;;;11.60;99.90;;;;;;7398227;19;20185;-84
2023/10/23 03:01:01;;;;;;;1.58;0.75;;;11.70;99.90;;;;;;7396213;19;20617;-85
2023/10/23 03:03:27;;;;;;;0.70;0.60;;;11.60;99.90;;;;;;7397552;19;20150;-84
2023/10/23 03:05:53;;;;;;;1.07;0.53;;;11.60;99.90;;;;;;7395739;19;20177;-84
2023/10/23 03:08:18;;;;;;;0.80;0.80;;;11.40;99.90;;;;;;7396261;19;20161;-85
2023/10/23 03:10:44;;;;;;;1.40;0.80;;;11.20;99.90;;;;;;7396187;19;20162;-84
2023/10/23 03:13:10;;;;;;;0.93;0.80;;;11.40;99.90;;;;;;7399318;19;20536;-85
2023/10/23 03:15:36;;;;;;;0.87;0.83;;;11.20;99.90;;;;;;7398052;19;20154;-85
2023/10/23 03:18:04;;;;;;;0.77;0.70;;;11.20;99.90;;;;;;7398074;19;20201;-85
2023/10/23 03:20:30;;;;;;;0.90;0.50;;;11.30;99.90;;;;;;7398131;19;20145;-84
2023/10/23 03:22:56;;;;;;;0.73;0.73;;;11.30;99.90;;;;;;7398214;19;20183;-84
2023/10/23 03:25:22;;;;;;;0.80;0.57;;;10.80;99.90;;;;;;7394887;19;20139;-84
2023/10/23 03:27:47;;;;;;;0.60;0.60;;;10.40;99.90;;;;;;7397876;19;20790;-84
2023/10/23 03:30:13;;;;;;;0.77;0.60;;;10.40;99.90;;;;;;7395550;19;20611;-84
2023/10/23 03:32:39;;;;;;;0.87;0.80;;;10.50;99.90;;;;;;7396495;19;20138;-84
2023/10/23 03:35:05;;;;;;;0.63;0.60;;;10.90;99.90;;;;;;7396803;19;20130;-84
2023/10/23 03:37:30;;;;;;;0.53;0.50;;;10.70;99.90;;;;;;7395320;19;20209;-84
2023/10/23 03:39:56;;;;;;;1.43;0.80;;;10.80;99.90;;;;;;7395560;19;20144;-84
2023/10/23 03:42:22;;;;;;;0.80;0.80;;;10.70;99.90;;;;;;7396925;19;20139;-84
2023/10/23 03:44:49;;;;;;;1.03;0.40;;;10.70;99.90;;;;;;7396092;19;20130;-84
2023/10/23 03:47:14;;;;;;;0.50;0.50;;;10.80;99.90;;;;;;7398342;19;20146;-84
2023/10/23 03:49:40;;;;;;;0.40;0.40;;;11.00;99.90;;;;;;7393644;19;20836;-84
2023/10/23 03:52:06;;;;;;;0.90;0.60;;;11.00;99.90;;;;;;7395446;19;20143;-84
2023/10/23 03:54:32;;;;;;;1.67;0.70;;;10.80;99.90;;;;;;7395288;19;20158;-84
2023/10/23 03:56:57;;;;;;;1.47;0.80;;;10.80;99.90;;;;;;7396440;19;20134;-84
2023/10/23 03:59:23;;;;;;;1.70;0.90;;;10.80;99.90;;;;;;7394797;19;20142;-84
2023/10/23 04:01:49;;;;;;;0.80;0.60;;;11.00;99.90;;;;;;7397629;19;20156;-85
2023/10/23 04:04:15;;;;;;;1.40;0.90;;;11.10;99.90;;;;;;7395158;19;20139;-83
2023/10/23 04:06:40;;;;;;;1.20;0.97;;;11.00;99.90;;;;;;7394078;19;20177;-84
2023/10/23 04:09:06;;;;;;;0.70;0.70;;;11.10;99.90;;;;;;7393578;19;20146;-83
2023/10/23 04:11:32;;;;;;;1.73;1.20;;;11.40;99.90;;;;;;7396940;19;20138;-84
2023/10/23 04:13:58;;;;;;;0.97;0.93;;;10.80;99.90;;;;;;7394629;19;20150;-85
2023/10/23 04:16:24;;;;;;;2.00;0.80;;;10.50;99.90;;;;;;7393656;19;20638;-84
2023/10/23 04:18:50;;;;;;;1.10;1.00;;;10.80;99.90;;;;;;7393275;19;20195;-84
2023/10/23 04:21:15;;;;;;;0.97;0.97;;;10.90;99.90;;;;;;7394547;19;20146;-84
2023/10/23 04:23:41;;;;;;;1.80;1.27;;;10.60;99.90;;;;;;7392886;19;20479;-83
2023/10/23 04:26:08;;;;;;;2.07;0.80;;;10.70;99.90;;;;;;7394477;19;20219;-86
2023/10/23 04:28:34;;;;;;;0.70;0.70;;;10.60;99.90;;;;;;7394880;19;20131;-85
2023/10/23 04:31:00;;;;;;;1.03;0.77;;;10.70;99.90;;;;;;7394066;19;20156;-84
2023/10/23 04:33:26;;;;;;;1.87;0.40;;;10.90;99.90;;;;;;7393833;19;20134;-84
2023/10/23 04:35:57;;;;;;;2.30;1.67;;;11.00;99.90;;;;;;7394595;19;20138;-85
2023/10/23 04:38:23;;;;;;;1.47;1.13;;;11.10;99.90;;;;;;7392886;19;20130;-84
2023/10/23 04:40:50;;;;;;;0.87;0.83;;;10.90;99.90;;;;;;7394335;19;20163;-85
2023/10/23 04:43:16;;;;;;;1.10;1.00;;;10.70;99.90;;;;;;7393040;19;20513;-83
2023/10/23 04:45:42;;;;;;;1.20;1.03;;;10.90;99.90;;;;;;7396304;19;20131;-83
2023/10/23 04:48:09;;;;;;;0.90;0.90;;;10.90;99.90;;;;;;7396619;19;20131;-83
2023/10/23 04:50:37;;;;;;;1.73;0.93;;;10.90;99.90;;;;;;7392186;19;20138;-84
2023/10/23 04:53:03;;;;;;;0.90;0.77;;;10.90;99.90;;;;;;7394581;19;20143;-84
2023/10/23 04:55:33;;;;;;;1.03;0.73;;;10.70;99.90;;;;;;7393171;19;20162;-84
2023/10/23 04:58:00;;;;;;;0.93;0.67;;;10.70;99.90;;;;;;7394854;19;20678;-84
2023/10/23 05:00:26;;;;;;;0.70;0.63;;;10.90;99.90;;;;;;7392284;19;20142;-85
2023/10/23 05:02:52;;;;;;;0.97;0.80;;;10.60;99.90;;;;;;7395994;19;20138;-84
2023/10/23 05:05:18;;;;;;;1.80;1.13;;;10.40;99.90;;;;;;7393347;19;20533;-85
2023/10/23 05:07:44;;;;;;;0.87;0.70;;;10.40;99.90;;;;;;7391366;19;20186;-84
2023/10/23 05:10:11;;;;;;;2.40;1.23;;;10.10;99.90;;;;;;7394235;19;20131;-84
2023/10/23 05:12:37;;;;;;;0.80;0.73;;;10.90;99.90;;;;;;7401669;19;20135;-84
2023/10/23 05:15:04;;;;;;;1.03;0.90;;;10.60;99.90;;;;;;7401897;19;20138;-84
2023/10/23 05:17:29;;;;;;;1.07;0.80;;;10.30;99.90;;;;;;7400538;19;20158;-84
2023/10/23 05:19:57;;;;;;;1.13;0.97;;;10.30;99.90;;;;;;7399804;19;20154;-84
2023/10/23 05:22:24;;;;;;;2.30;1.03;;;10.30;99.90;;;;;;7402005;19;20595;-86
2023/10/23 05:24:50;;;;;;;1.23;1.00;;;10.50;99.90;;;;;;7400654;19;20871;-82
2023/10/23 05:27:20;;;;;;;2.47;1.30;;;11.00;99.90;;;;;;7401608;19;20142;-83
2023/10/23 05:29:46;;;;;;;1.63;0.97;;;10.60;99.90;;;;;;7398614;19;20150;-84
2023/10/23 05:32:12;;;;;;;1.73;1.00;;;10.30;99.90;;;;;;7398724;19;20150;-84
2023/10/23 05:34:37;;;;;;;2.13;1.10;;;10.20;99.90;;;;;;7400077;19;20146;-83
2023/10/23 05:37:03;;;;;;;1.67;1.00;;;10.40;99.90;;;;;;7397521;19;20443;-85
2023/10/23 05:39:29;;;;;;;0.80;0.63;;;10.60;99.90;;;;;;7398566;19;20141;-83
2023/10/23 05:41:55;;;;;;;0.67;0.67;;;10.40;99.90;;;;;;7398493;19;20210;-83
2023/10/23 05:44:21;;;;;;;1.90;0.83;;;10.10;99.90;;;;;;7398519;19;20163;-82
2023/10/23 05:46:47;;;;;;;1.87;1.00;;;10.00;99.90;;;;;;7400405;19;20162;-82
2023/10/23 05:49:12;;;;;;;1.23;0.83;;;9.80;99.90;;;;;;7397660;19;20139;-82
2023/10/23 05:51:38;;;;;;;1.27;0.87;;;10.00;99.90;;;;;;7399562;19;20658;-87
2023/10/23 05:54:04;;;;;;;1.10;0.77;;;10.40;99.90;;;;;;7399020;19;20146;-83
2023/10/23 05:56:30;;;;;;;1.63;0.77;;;10.70;99.90;;;;;;7399268;19;20155;-84
2023/10/23 05:58:55;;;;;;;0.60;0.60;;;10.70;99.90;;;;;;7397897;19;20131;-82
2023/10/23 06:01:30;;;;;;;0.70;0.70;;;10.80;99.90;;;;;;7396314;19;20450;-88
2023/10/23 06:03:56;;;;;;;0.63;0.63;;;10.80;99.90;;;;;;7398225;19;20134;-86
2023/10/23 06:06:22;;;;;;;0.80;0.80;;;10.80;99.90;;;;;;7397905;19;20173;-86
2023/10/23 06:08:48;;;;;;;1.10;0.90;;;10.80;99.90;;;;;;7398380;19;20139;-86
2023/10/23 06:11:13;;;;;;;0.90;0.90;;;10.80;99.90;;;;;;7395945;19;20161;-86
2023/10/23 06:13:39;;;;;;;1.33;1.23;;;10.90;99.90;;;;;;7399137;19;20165;-82
2023/10/23 06:16:07;;;;;;;2.23;1.17;;;10.80;99.90;;;;;;7398878;19;20152;-85
2023/10/23 06:18:37;;;;;;;1.80;1.33;;;10.80;99.90;;;;;;7397831;19;20496;-85
2023/10/23 06:21:05;;;;;;;1.37;0.80;;;10.80;99.90;;;;;;7399528;19;20151;-85
2023/10/23 06:23:39;;;;;;;0.97;0.70;;;10.60;99.90;;;;;;7398548;19;20155;-85
2023/10/23 06:26:06;;;;;;;0.80;0.80;;;10.70;99.90;;;;;;7396597;19;20564;-84
2023/10/23 06:28:33;;;;;;;1.63;1.33;;;10.80;99.90;;;;;;7397299;19;20201;-83
2023/10/23 06:31:06;;;;;;;1.57;0.70;;;10.80;99.90;;;;;;7394546;19;20139;-84
2023/10/23 06:33:32;;;;;;;1.43;1.20;;;11.00;99.90;;;;;;7396498;19;20138;-85
2023/10/23 06:36:09;;;;;;;2.40;1.23;;;10.80;99.90;;;;;;7397828;19;20159;-84
2023/10/23 06:38:36;;;;;;;1.47;0.90;;;10.70;99.90;;;;;;7398880;19;20157;-84
2023/10/23 06:41:06;;;;;;;1.27;0.70;;;10.50;99.90;;;;;;7398954;19;20179;-86
2023/10/23 06:43:32;;;;;;;0.87;0.83;;;10.80;99.90;;;;;;7397236;19;20139;-84
2023/10/23 06:45:58;;;;;;;0.70;0.70;;;11.10;99.90;;;;;;7399079;19;20569;-83
2023/10/23 06:48:25;;;;;;;1.10;0.90;;;11.10;99.90;;;;;;7396408;19;20138;-85
2023/10/23 06:50:51;;;;;;;1.27;1.10;;;11.20;99.90;;;;;;7396507;19;20154;-84
2023/10/23 06:53:17;;;;;;;1.63;1.10;;;11.30;99.90;;;;;;7400216;19;20162;-83
2023/10/23 06:55:54;;;;;;;1.93;0.97;;;11.40;99.90;;;;;;7396647;19;20174;-84
2023/10/23 06:58:20;;;;;;;0.60;0.60;;;11.20;99.90;;;;;;7401787;19;20140;-87
2023/10/23 07:00:46;;;;;;;0.90;0.63;;;11.30;99.90;;;;;;7402099;19;20491;-86
2023/10/23 07:03:15;;;;;;;1.73;1.20;;;11.50;99.90;;;;;;7403462;19;20504;-86
2023/10/23 07:05:51;;;;;;;1.03;0.93;;;11.50;99.90;;;;;;7405060;19;20177;-82
2023/10/23 07:08:17;;;;;;;1.93;1.00;;;11.50;99.90;;;;;;7399817;19;20153;-84
2023/10/23 07:10:42;;;;;;;2.33;1.30;;;11.50;99.90;;;;;;7394314;19;20243;-86
2023/10/23 07:13:08;;;;;;;1.70;1.42;;;11.50;99.90;;;;;;7394913;19;20379;-84
2023/10/23 07:15:34;;;;;;;1.40;1.20;;;11.60;99.90;;;;;;7394815;19;20161;-83
2023/10/23 07:18:01;;;;;;;4.60;1.17;;;11.50;99.90;;;;;;7393397;19;20181;-84
2023/10/23 07:20:27;;;;;;;1.13;1.03;;;11.50;99.90;;;;;;7397027;19;20151;-85
2023/10/23 07:22:53;;;;;;;2.63;1.70;;;11.30;99.90;;;;;;7399421;19;20226;-84
2023/10/23 07:25:19;;;;;;;1.47;1.13;;;11.40;99.90;;;;;;7394132;19;20150;-83
2023/10/23 07:27:44;;;;;;;1.53;1.43;;;11.20;99.90;;;;;;7393424;19;20134;-85
2023/10/23 07:30:11;;;;;;;1.67;0.97;;;11.30;99.90;;;;;;7392238;19;20143;-83
2023/10/23 07:32:37;;;;;;;1.90;1.10;;;11.50;99.90;;;;;;7393230;19;20159;-82
2023/10/23 07:35:08;;;;;;;2.47;2.00;;;11.70;99.90;;;;;;7388376;19;20126;-82
2023/10/23 07:37:34;;;;;;;1.43;1.33;;;11.70;99.90;;;;;;7393041;19;20142;-84
2023/10/23 07:40:04;;;;;;;2.97;1.20;;;11.80;99.90;;;;;;7395628;19;20145;-82
2023/10/23 07:42:31;;;;;;;2.20;1.33;;;11.90;99.90;;;;;;7393313;19;20632;-83
2023/10/23 07:44:57;;;;;;;1.60;1.10;;;11.80;99.90;;;;;;7393295;19;20156;-83
2023/10/23 07:47:22;;;;;;;1.10;1.00;;;11.90;99.90;;;;;;7392560;19;20155;-83
2023/10/23 07:49:48;;;;;;;2.13;1.20;;;11.70;99.90;;;;;;7392229;19;20163;-84
2023/10/23 07:52:14;;;;;;;1.20;1.03;;;11.70;99.90;;;;;;7392821;19;20222;-84
2023/10/23 07:54:39;;;;;;;2.23;1.60;;;11.50;99.90;;;;;;7392619;19;20518;-82
2023/10/23 07:57:05;;;;;;;2.40;1.47;;;11.60;99.90;;;;;;7390259;19;20217;-83
2023/10/23 07:59:32;;;;;;;2.67;1.50;;;11.70;99.90;;;;;;7390880;19;20139;-84
2023/10/23 08:01:58;;;;;;;1.23;1.13;;;11.60;99.90;;;;;;7393953;19;20146;-86
2023/10/23 08:04:24;;;;;;;2.00;1.52;;;11.80;99.90;;;;;;7391917;19;20222;-85
2023/10/23 08:06:49;;;;;;;2.50;1.40;;;12.00;99.90;;;;;;7391636;19;20186;-85
2023/10/23 08:09:15;;;;;;;1.70;1.30;;;12.00;99.90;;;;;;7392532;19;20475;-86
2023/10/23 08:11:41;;;;;;;1.67;1.47;;;12.10;99.90;;;;;;7399567;19;20149;-87
2023/10/23 08:14:07;;;;;;;0.90;0.90;;;12.10;99.90;;;;;;7392013;19;20139;-84
2023/10/23 08:16:33;;;;;;;2.47;1.37;;;12.20;99.90;;;;;;7391892;19;20134;-85
2023/10/23 08:18:58;;;;;;;1.10;1.00;;;12.20;99.90;;;;;;7392129;19;20205;-86
2023/10/23 08:21:28;;;;;;;1.67;1.20;;;12.20;99.90;;;;;;7391102;19;20152;-85
2023/10/23 08:23:56;;;;;;;1.50;1.30;;;12.30;99.90;;;;;;7391632;19;20806;-83
2023/10/23 08:26:22;;;;;;;2.53;1.30;;;12.60;99.90;;;;;;7394122;19;20183;-84
2023/10/23 08:28:49;;;;;;;1.77;1.37;;;12.20;99.90;;;;;;7393164;19;20580;-84
2023/10/23 08:31:16;;;;;;;1.47;1.17;;;12.20;99.90;;;;;;7390715;19;20134;-84
2023/10/23 08:33:41;;;;;;;0.80;0.80;;;12.20;99.90;;;;;;7395449;19;20134;-83
2023/10/23 08:36:07;;;;;;;1.33;1.20;;;12.20;99.90;;;;;;7394370;19;20138;-86
2023/10/23 08:38:33;;;;;;;1.80;1.07;;;12.20;99.90;;;;;;7393982;19;20131;-87
2023/10/23 08:41:02;;;;;;;1.47;1.37;;;12.40;99.90;;;;;;7395537;19;20195;-88
2023/10/23 08:43:29;;;;;;;1.50;1.30;;;12.30;99.90;;;;;;7395801;19;20135;-86
2023/10/23 08:45:59;;;;;;;1.47;1.10;;;12.20;99.90;;;;;;7401111;19;20580;-87
2023/10/23 08:48:25;;;;;;;3.50;1.40;;;12.20;99.90;;;;;;7403040;19;20134;-89
2023/10/23 08:50:51;;;;;;;1.33;1.23;;;12.30;99.90;;;;;;7399176;19;20690;-85
2023/10/23 08:53:22;;;;;;;1.43;1.07;;;12.20;99.90;;;;;;7399626;19;20176;-86
2023/10/23 08:55:48;;;;;;;1.43;1.00;;;12.20;99.90;;;;;;7401096;19;20146;-84
2023/10/23 08:58:16;;;;;;;2.17;1.57;;;12.10;99.90;;;;;;7400957;19;20162;-83
2023/10/23 09:00:42;;;;;;;3.70;1.50;;;12.10;99.90;;;;;;7401380;19;20836;-87
2023/10/23 09:03:10;;;;;;;1.83;1.57;;;12.20;99.90;;;;;;7406301;19;20179;-84
2023/10/23 09:05:36;;;;;;;2.23;1.73;;;12.10;99.90;;;;;;7402743;19;20158;-86
2023/10/23 09:08:05;;;;;;;2.00;1.43;;;12.30;99.90;;;;;;7398026;19;20146;-85
2023/10/23 09:10:30;;;;;;;2.93;1.77;;;12.60;99.90;;;;;;7397568;19;20535;-86
2023/10/23 09:12:56;;;;;;;7.47;1.87;;;12.70;99.90;;;;;;7399937;19;20135;-87
2023/10/23 09:15:23;;;;;;;4.40;1.70;;;12.80;99.90;;;;;;7400148;19;20127;-87
2023/10/23 09:17:49;;;;;;;6.27;2.20;;;12.70;99.90;;;;;;7398413;19;20207;-85
2023/10/23 09:20:27;;;;;;;2.50;1.67;;;12.80;99.90;;;;;;7403889;19;20702;-85
2023/10/23 09:22:54;;;;;;;1.50;1.17;;;12.80;99.90;;;;;;7407460;19;20153;-85
2023/10/23 09:25:22;;;;;;;5.47;1.67;;;12.90;99.90;;;;;;7398012;19;20154;-89
2023/10/23 09:27:48;;;;;;;5.35;3.75;;;12.80;99.90;;;;;;7404313;19;20147;-86
2023/10/23 09:30:24;;;;;;;2.40;1.77;;;12.70;99.90;;;;;;7398657;19;20155;-90
2023/10/23 09:32:54;;;;;;;2.08;1.67;;;12.30;99.90;;;;;;7399534;19;20147;-87
2023/10/23 09:35:28;;;;;;;2.03;1.60;;;12.00;99.90;;;;;;7406765;19;20166;-88
2023/10/23 09:37:56;;;;;;;2.10;1.40;;;12.10;99.90;;;;;;7401307;19;20343;-86
2023/10/23 09:40:22;;;;;;;1.50;1.40;;;12.30;99.90;;;;;;7399171;19;20151;-88
2023/10/23 09:42:49;;;;;;;3.07;1.60;;;12.50;99.90;;;;;;7398798;19;20161;-87
2023/10/23 09:45:15;;;;;;;4.07;1.65;;;12.80;99.90;;;;;;7397971;19;20134;-88
2023/10/23 09:47:41;;;;;;;2.00;1.60;;;12.40;99.90;;;;;;7401611;19;20126;-87
2023/10/23 09:50:08;;;;;;;3.00;1.98;;;12.40;99.90;;;;;;7399136;19;20130;-87
2023/10/23 09:52:36;;;;;;;3.00;1.63;;;12.60;99.90;;;;;;7399106;19;20139;-88
2023/10/23 09:55:04;;;;;;;2.17;1.40;;;12.90;99.90;;;;;;7398563;19;20150;-87
2023/10/23 09:57:38;;;;;;;4.40;2.00;;;12.90;99.90;;;;;;7397192;19;20141;-87
2023/10/23 10:00:13;;;;;;;1.73;1.37;;;12.90;99.90;;;;;;7397765;19;20157;-86
2023/10/23 10:02:45;;;;;;;3.97;1.77;;;12.80;99.90;;;;;;7396577;19;20169;-87
2023/10/23 10:05:23;;;;;;;2.20;1.63;;;12.80;99.90;;;;;;7396813;19;20143;-88
2023/10/23 10:08:09;;;;;;;3.00;1.53;;;12.70;99.90;;;;;;7397648;19;20230;-87
2023/10/23 10:10:36;;;;;;;2.33;1.60;;;12.50;99.90;;;;;;7397376;19;20254;-87
2023/10/23 10:13:06;;;;;;;2.30;1.60;;;12.70;99.90;;;;;;7399823;19;20161;-85
2023/10/23 10:15:33;;;;;;;2.87;1.47;;;12.80;99.90;;;;;;7398590;19;20147;-88
2023/10/23 10:17:58;;;;;;;2.07;1.60;;;12.90;99.90;;;;;;7396546;19;20623;-86
2023/10/23 10:20:25;;;;;;;2.10;1.40;;;13.00;99.90;;;;;;7396975;19;20131;-90
2023/10/23 10:23:11;;;;;;;1.90;1.60;;;13.10;99.90;;;;;;7398924;19;20142;-83
2023/10/23 10:25:39;;;;;;;3.33;1.30;;;13.20;99.90;;;;;;7397129;19;20146;-84
2023/10/23 10:28:07;;;;;;;2.97;1.23;;;13.20;99.90;;;;;;7400633;19;20159;-86
2023/10/23 10:30:50;;;;;;;2.77;1.63;;;13.30;99.90;;;;;;7397600;19;20162;-85
2023/10/23 10:33:20;;;;;;;2.80;1.77;;;13.30;99.90;;;;;;7406835;19;20155;-83
2023/10/23 10:35:51;;;;;;;3.40;1.83;;;13.20;99.90;;;;;;7411360;19;20162;-82
2023/10/23 10:38:21;;;;;;;2.30;1.70;;;13.30;99.90;;;;;;7407893;19;20198;-85
2023/10/23 10:40:59;;;;;;;1.97;1.47;;;13.40;99.90;;;;;;7407928;19;20138;-83
2023/10/23 10:43:31;;;;;;;1.90;1.63;;;13.40;99.90;;;;;;7405623;19;20131;-85
2023/10/23 10:45:57;;;;;;;2.30;1.77;;;13.50;99.90;;;;;;7399625;19;20131;-86
2023/10/23 10:48:25;;;;;;;3.17;2.05;;;13.50;99.90;;;;;;7398753;19;20127;-86
2023/10/23 10:50:53;;;;;;;2.88;1.67;;;13.40;99.90;;;;;;7397103;19;20188;-85
2023/10/23 10:53:21;;;;;;;2.03;1.30;;;13.20;99.90;;;;;;7398005;19;20130;-84
2023/10/23 10:55:47;;;;;;;4.82;1.80;;;13.30;99.90;;;;;;7395464;19;20146;-84
2023/10/23 10:58:14;;;;;;;1.65;1.45;;;13.40;99.90;;;;;;7404395;19;20202;-87
2023/10/23 11:00:39;;;;;;;2.73;2.03;;;13.30;99.90;;;;;;7400495;19;20134;-81
2023/10/23 11:03:07;;;;;;;3.40;1.90;;;13.30;99.90;;;;;;7397168;19;20123;-85
2023/10/23 11:05:35;;;;;;;5.47;2.63;;;13.40;99.90;;;;;;7395947;19;20914;-84
2023/10/23 11:08:01;;;;;;;2.45;1.52;;;13.40;99.90;;;;;;7395384;19;20147;-84
2023/10/23 11:10:27;;;;;;;2.10;1.67;;;13.40;99.90;;;;;;7395946;19;20266;-85
2023/10/23 11:12:53;;;;;;;1.45;1.35;;;13.50;99.90;;;;;;7398458;19;20141;-85
2023/10/23 11:15:19;;;;;;;3.50;2.07;;;13.50;99.90;;;;;;7398077;19;20495;-84
2023/10/23 11:17:45;;;;;;;1.80;1.40;;;13.50;99.90;;;;;;7396880;19;20152;-85
2023/10/23 11:20:12;;;;;;;2.72;1.52;;;13.40;99.90;;;;;;7397589;19;20135;-86
2023/10/23 11:22:43;;;;;;;2.40;1.80;;;13.40;99.90;;;;;;7397001;19;20154;-84
2023/10/23 11:25:10;;;;;;;2.05;1.48;;;13.60;99.90;;;;;;7401524;19;20134;-85
2023/10/23 11:27:37;;;;;;;2.55;1.73;;;13.60;99.90;;;;;;7397448;19;20175;-83
2023/10/23 11:30:05;;;;;;;1.97;1.57;;;13.70;99.90;;;;;;7396697;19;20146;-83
2023/10/23 11:32:31;;;;;;;2.33;1.48;;;13.70;99.90;;;;;;7397975;19;20163;-84
2023/10/23 11:35:03;;;;;;;2.33;1.48;;;13.60;99.90;;;;;;7394340;19;20159;-84
2023/10/23 11:37:40;;;;;;;1.92;1.42;;;13.80;99.90;;;;;;7395952;19;20150;-84
2023/10/23 11:40:10;;;;;;;2.42;1.75;;;13.90;99.90;;;;;;7397945;19;20442;-84
2023/10/23 11:42:50;;;;;;;2.45;1.67;;;13.90;99.90;;;;;;7395732;19;20166;-84
2023/10/23 11:45:19;;;;;;;4.60;2.00;;;14.00;99.90;;;;;;7395286;19;20143;-83
2023/10/23 11:47:48;;;;;;;2.80;1.88;;;14.00;99.90;;;;;;7395415;19;20169;-85
2023/10/23 11:50:14;;;;;;;4.00;2.00;;;14.00;99.90;;;;;;7396491;19;20154;-85
2023/10/23 11:52:44;;;;;;;1.98;1.58;;;14.00;99.90;;;;;;7396603;19;20592;-85
2023/10/23 11:55:12;;;;;;;3.22;1.83;;;14.00;99.90;;;;;;7396924;19;21092;-85
2023/10/23 11:57:40;;;;;;;4.63;2.03;;;14.10;99.90;;;;;;7399664;19;20142;-87
2023/10/23 12:00:11;;;;;;;3.63;1.92;;;14.10;99.90;;;;;;7405106;19;20570;-88
2023/10/23 12:02:42;;;;;;;2.88;2.13;;;14.10;99.90;;;;;;7408598;19;20170;-86
2023/10/23 12:05:12;;;;;;;2.83;1.90;;;13.70;99.90;;;;;;7409225;19;20154;-86
2023/10/23 12:07:42;;;;;;;4.65;1.90;;;13.70;99.90;;;;;;7401273;19;20150;-87
2023/10/23 12:10:10;;;;;;;1.90;1.60;;;13.90;99.90;;;;;;7407875;19;20131;-86
2023/10/23 12:12:41;;;;;;;2.40;1.73;;;14.00;99.90;;;;;;7407158;19;20138;-84
2023/10/23 12:15:08;;;;;;;2.85;1.70;;;14.10;99.90;;;;;;7400944;19;20146;-84
2023/10/23 12:17:34;;;;;;;2.08;1.52;;;14.20;99.90;;;;;;7396366;19;20130;-84
2023/10/23 12:20:07;;;;;;;1.80;1.33;;;14.10;99.90;;;;;;7402952;19;20131;-85
2023/10/23 12:22:36;;;;;;;3.50;1.40;;;14.00;99.90;;;;;;7408570;19;20505;-82
2023/10/23 12:25:04;;;;;;;2.83;1.95;;;14.10;99.90;;;;;;7414681;19;20138;-84
2023/10/23 12:27:34;;;;;;;4.25;2.60;;;14.10;99.90;;;;;;7415118;19;20150;-85
2023/10/23 12:30:04;;;;;;;1.80;1.50;;;14.10;99.90;;;;;;7413004;19;20130;-84
2023/10/23 12:32:34;;;;;;;2.47;1.85;;;14.10;99.90;;;;;;7404817;19;20131;-85
2023/10/23 12:35:03;;;;;;;1.58;1.17;;;14.10;99.90;;;;;;7402568;19;20142;-84
2023/10/23 12:37:30;;;;;;;1.48;1.20;;;14.10;99.90;;;;;;7403324;19;20147;-82
2023/10/23 12:39:58;;;;;;;2.05;1.63;;;14.10;99.90;;;;;;7400728;19;20138;-84
2023/10/23 12:42:24;;;;;;;1.38;1.27;;;14.20;99.90;;;;;;7401858;19;20182;-83
2023/10/23 12:44:51;;;;;;;2.67;1.80;;;14.20;99.90;;;;;;7401765;19;20127;-84
2023/10/23 12:47:20;;;;;;;2.42;1.67;;;14.30;99.90;;;;;;7398462;19;20806;-85